Time;durP1;ratioP1;P1;durP2;ratioP2;P2;SDS_P1;SDS_P2;PMS_P1;PMS_P2;Temp;Humidity;BMP_temperature;BMP_pressure;BME280_temperature;BME280_humidity;BME280_pressure;Samples;Min_cycle;Max_cycle;Signal;HPM_P1;HPM_P2
2023/03/02 00:01:09;;;;;;;45.03;22.13;;;;;;;-143.48;90.76;118439.88;5112949;28;20023;-28
2023/03/02 00:03:39;;;;;;;50.70;22.80;;;;;;;-143.48;91.77;118439.88;5113375;28;20458;-28
2023/03/02 00:06:06;;;;;;;50.25;23.23;;;;;;;-143.48;92.49;118439.88;5114095;28;20441;-28
2023/03/02 00:08:33;;;;;;;50.53;24.55;;;;;;;-143.48;92.84;118439.88;5113738;28;20045;-29
2023/03/02 00:11:00;;;;;;;48.33;22.20;;;;;;;-143.48;92.52;118439.88;5113506;28;20457;-28
2023/03/02 00:13:27;;;;;;;49.70;24.02;;;;;;;-143.48;94.32;118439.88;5113819;28;20465;-30
2023/03/02 00:15:53;;;;;;;44.25;19.98;;;;;;;-143.48;95.13;118439.88;5115090;28;20019;-28
2023/03/02 00:18:18;;;;;;;55.67;24.60;;;;;;;-143.48;94.82;118439.88;5115253;28;20571;-28
2023/03/02 00:20:43;;;;;;;58.50;25.30;;;;;;;-143.48;94.90;118439.88;5115040;28;20428;-28
2023/03/02 00:23:08;;;;;;;51.78;23.63;;;;;;;-143.48;94.89;118439.88;5114880;28;20521;-28
2023/03/02 00:25:34;;;;;;;59.10;25.27;;;;;;;-143.48;95.04;118439.88;5115137;28;20034;-28
2023/03/02 00:28:00;;;;;;;55.17;24.73;;;;;;;-143.48;94.87;118439.88;5114838;28;20484;-28
2023/03/02 00:30:25;;;;;;;62.25;25.15;;;;;;;-143.48;94.27;118439.88;5114994;28;20019;-28
2023/03/02 00:32:50;;;;;;;56.35;24.23;;;;;;;-143.48;94.41;118439.88;5114581;28;20034;-28
2023/03/02 00:35:16;;;;;;;59.50;23.70;;;;;;;-143.48;95.06;118439.88;5114631;28;20019;-29
2023/03/02 00:37:42;;;;;;;52.00;23.27;;;;;;;-143.48;94.29;118439.88;5114921;28;20031;-28
2023/03/02 00:40:08;;;;;;;61.80;25.95;;;;;;;-143.48;95.23;118439.88;5114864;28;20024;-28
2023/03/02 00:42:35;;;;;;;58.35;25.92;;;;;;;-143.48;94.44;118439.88;5114364;28;20059;-28
2023/03/02 00:45:00;;;;;;;57.25;21.77;;;;;;;-143.48;95.09;118439.88;5114477;28;20038;-28
2023/03/02 00:47:28;;;;;;;56.40;24.58;;;;;;;-143.48;95.34;118439.88;5114695;28;20035;-28
2023/03/02 00:49:54;;;;;;;59.17;24.92;;;;;;;-143.48;94.47;118439.88;5114657;28;20473;-28
2023/03/02 00:52:19;;;;;;;56.78;23.83;;;;;;;-143.48;93.66;118439.88;5097289;28;20024;-28
2023/03/02 00:54:44;;;;;;;54.03;23.33;;;;;;;-143.48;93.17;118439.88;5114314;28;20148;-28
2023/03/02 00:57:10;;;;;;;56.28;24.75;;;;;;;-143.48;92.83;118439.88;5114268;28;20034;-28
2023/03/02 00:59:38;;;;;;;53.47;23.98;;;;;;;-143.48;93.35;118439.88;5114535;28;20072;-28
2023/03/02 01:02:05;;;;;;;61.65;25.15;;;;;;;-143.48;92.89;118439.88;5114562;28;20024;-28
2023/03/02 01:04:31;;;;;;;53.72;23.52;;;;;;;-143.48;93.16;118439.88;5114448;28;20023;-29
2023/03/02 01:06:58;;;;;;;57.67;23.63;;;;;;;-143.48;93.56;118439.88;5114031;28;20067;-28
2023/03/02 01:09:24;;;;;;;54.92;24.00;;;;;;;-143.48;93.45;118439.88;5114685;28;20028;-28
2023/03/02 01:11:50;;;;;;;56.28;23.75;;;;;;;-143.48;92.88;118439.88;5114036;28;20044;-28
2023/03/02 01:14:15;;;;;;;50.72;23.17;;;;;;;-143.48;92.98;118439.88;5095765;28;20364;-28
2023/03/02 01:16:41;;;;;;;51.13;23.48;;;;;;;-143.48;92.96;118439.88;5113942;28;20447;-28
2023/03/02 01:19:06;;;;;;;54.72;23.85;;;;;;;-143.48;93.12;118439.88;5114567;28;20019;-28
2023/03/02 01:21:31;;;;;;;52.22;23.40;;;;;;;-143.48;93.56;118439.88;5113908;28;20088;-28
2023/03/02 01:23:57;;;;;;;53.83;23.48;;;;;;;-143.48;93.61;118439.88;5114258;28;20058;-28
2023/03/02 01:26:22;;;;;;;46.63;21.83;;;;;;;-143.48;94.01;118439.88;5113894;28;20385;-28
2023/03/02 01:28:47;;;;;;;51.75;22.23;;;;;;;-143.48;94.29;118439.88;5113847;28;20030;-28
2023/03/02 01:31:13;;;;;;;51.53;22.63;;;;;;;-143.48;94.59;118439.88;5114415;28;20076;-28
2023/03/02 01:33:38;;;;;;;54.00;22.65;;;;;;;-143.48;94.03;118439.88;5114081;28;20028;-28
2023/03/02 01:36:04;;;;;;;51.63;22.95;;;;;;;-143.48;93.94;118439.88;5113792;28;20020;-28
2023/03/02 01:38:29;;;;;;;50.28;22.85;;;;;;;-143.48;94.01;118439.88;5095561;28;20031;-28
2023/03/02 01:40:55;;;;;;;52.60;23.17;;;;;;;-143.48;94.36;118439.88;5095719;28;20016;-28
2023/03/02 01:43:20;;;;;;;48.03;22.73;;;;;;;-143.48;94.38;118439.88;5114106;28;20045;-28
2023/03/02 01:45:50;;;;;;;51.95;22.05;;;;;;;-143.48;93.85;118439.88;5114629;28;20024;-28
2023/03/02 01:48:20;;;;;;;53.40;22.63;;;;;;;-143.48;93.34;118439.88;5114017;28;20081;-28
2023/03/02 01:50:46;;;;;;;49.08;21.90;;;;;;;-143.48;93.60;118439.88;5114122;28;20410;-28
2023/03/02 01:53:14;;;;;;;50.05;22.08;;;;;;;-143.48;93.44;118439.88;5113624;28;20055;-28
2023/03/02 01:55:40;;;;;;;45.92;21.45;;;;;;;-143.48;93.48;118439.88;5113650;28;20028;-28
2023/03/02 01:58:06;;;;;;;47.00;22.17;;;;;;;-143.48;93.59;118439.88;5113894;28;20028;-28
2023/03/02 02:00:37;;;;;;;46.60;20.38;;;;;;;-143.48;93.25;118439.88;5113819;28;20034;-28
2023/03/02 02:03:09;;;;;;;46.90;22.05;;;;;;;-143.48;93.63;118439.88;5113639;28;20023;-28
2023/03/02 02:05:41;;;;;;;47.63;21.77;;;;;;;-143.48;93.58;118439.88;5113639;28;20102;-27
2023/03/02 02:08:07;;;;;;;52.60;23.27;;;;;;;-143.48;93.59;118439.88;5113883;28;20035;-27
2023/03/02 02:10:33;;;;;;;48.00;22.80;;;;;;;-143.48;93.50;118439.88;5113787;28;20077;-28
2023/03/02 02:12:58;;;;;;;48.60;21.25;;;;;;;-143.48;93.82;118439.88;5113324;28;20108;-27
2023/03/02 02:15:24;;;;;;;45.78;21.80;;;;;;;-143.48;93.92;118439.88;5113735;28;20539;-27
2023/03/02 02:17:53;;;;;;;50.83;21.58;;;;;;;-143.48;93.29;118439.88;5113349;28;20055;-27
2023/03/02 02:20:45;;;;;;;49.75;20.90;;;;;;;-143.48;93.32;118439.88;5113813;28;20028;-28
2023/03/02 02:23:39;;;;;;;46.65;22.25;;;;;;;-143.48;93.71;118439.88;5113375;28;20478;-28
2023/03/02 02:26:17;;;;;;;48.65;21.75;;;;;;;-143.48;93.57;118439.88;5080746;28;20516;-27
2023/03/02 02:29:03;;;;;;;52.75;20.75;;;;;;;-143.48;93.32;118439.88;5117463;28;20024;-28
2023/03/02 02:31:34;;;;;;;50.00;21.13;;;;;;;-143.48;92.95;118439.88;5117272;28;20022;-27
2023/03/02 02:34:08;;;;;;;51.05;21.92;;;;;;;-143.48;94.02;118439.88;5117131;28;20114;-27
2023/03/02 02:36:38;;;;;;;45.33;20.50;;;;;;;-143.48;93.95;118439.88;5117276;28;20034;-27
2023/03/02 02:39:07;;;;;;;47.13;21.02;;;;;;;-143.48;93.61;118439.88;5117505;28;20024;-27
2023/03/02 02:41:38;;;;;;;51.05;21.98;;;;;;;-143.48;94.02;118439.88;5117385;28;20023;-28
2023/03/02 02:44:04;;;;;;;48.17;21.27;;;;;;;-143.48;93.00;118439.88;5117035;28;20069;-27
2023/03/02 02:46:31;;;;;;;46.15;20.77;;;;;;;-143.48;93.86;118439.88;5117231;28;20020;-28
2023/03/02 02:48:56;;;;;;;45.88;20.08;;;;;;;-143.48;93.67;118439.88;5116804;28;20028;-27
2023/03/02 02:51:27;;;;;;;48.42;21.00;;;;;;;-143.48;93.20;118439.88;5116995;28;20050;-28
2023/03/02 02:53:58;;;;;;;45.20;20.95;;;;;;;-143.48;93.32;118439.88;5116660;28;20471;-28
2023/03/02 02:56:36;;;;;;;44.33;20.13;;;;;;;-143.48;93.17;118439.88;5116756;28;20076;-31
2023/03/02 02:59:15;;;;;;;49.42;20.52;;;;;;;-143.48;93.20;118439.88;5116989;28;20104;-29
2023/03/02 03:01:41;;;;;;;51.30;20.08;;;;;;;-143.48;92.96;118439.88;5116901;28;20049;-27
2023/03/02 03:04:06;;;;;;;45.08;20.77;;;;;;;-143.48;93.23;118439.88;5116535;28;20023;-28
2023/03/02 03:06:41;;;;;;;43.80;19.88;;;;;;;-143.48;92.94;118439.88;5116678;28;20023;-27
2023/03/02 03:09:09;;;;;;;47.00;20.45;;;;;;;-143.48;93.71;118439.88;5116280;28;20053;-28
2023/03/02 03:11:39;;;;;;;42.00;19.42;;;;;;;-143.48;93.14;118439.88;5116575;28;20055;-27
2023/03/02 03:14:20;;;;;;;50.22;21.50;;;;;;;-143.48;94.20;118439.88;5116179;28;20023;-27
2023/03/02 03:16:48;;;;;;;50.10;20.50;;;;;;;-143.48;94.43;118439.88;5116770;28;20057;-28
2023/03/02 03:19:30;;;;;;;43.45;20.55;;;;;;;-143.48;93.88;118439.88;5116315;28;20019;-27
2023/03/02 03:21:59;;;;;;;47.72;20.30;;;;;;;-143.48;93.75;118439.88;5116666;28;20024;-27
2023/03/02 03:24:26;;;;;;;43.35;19.17;;;;;;;-143.48;94.21;118439.88;5116143;28;20023;-33
2023/03/02 03:26:53;;;;;;;43.90;19.13;;;;;;;-143.48;94.17;118439.88;5116371;28;20031;-27
2023/03/02 03:29:23;;;;;;;47.92;19.50;;;;;;;-143.48;93.66;118439.88;5115952;28;20047;-27
2023/03/02 03:31:49;;;;;;;46.63;20.02;;;;;;;-143.48;93.98;118439.88;5096879;28;20488;-27
2023/03/02 03:34:15;;;;;;;47.42;19.63;;;;;;;-143.48;94.00;118439.88;5115814;28;20016;-27
2023/03/02 03:36:42;;;;;;;42.10;19.73;;;;;;;-143.48;93.69;118439.88;5116142;28;20028;-27
2023/03/02 03:39:08;;;;;;;43.95;20.08;;;;;;;-143.48;93.19;118439.88;5115828;28;20084;-27
2023/03/02 03:41:33;;;;;;;42.10;18.55;;;;;;;-143.48;92.52;118439.88;5116007;28;20043;-27
2023/03/02 03:43:58;;;;;;;44.60;19.98;;;;;;;-143.48;93.63;118439.88;5116241;28;20011;-28
2023/03/02 03:46:24;;;;;;;42.72;19.65;;;;;;;-143.48;93.79;118439.88;5115947;28;20080;-27
2023/03/02 03:48:49;;;;;;;49.15;21.02;;;;;;;-143.48;93.40;118439.88;5115816;28;20031;-28
2023/03/02 03:51:15;;;;;;;46.15;19.98;;;;;;;-143.48;93.12;118439.88;5115509;28;20106;-27
2023/03/02 03:53:40;;;;;;;41.72;19.20;;;;;;;-143.48;92.68;118439.88;5115770;28;20434;-28
2023/03/02 03:56:06;;;;;;;40.90;18.75;;;;;;;-143.48;93.21;118439.88;5115648;28;20044;-27
2023/03/02 03:58:32;;;;;;;40.72;19.55;;;;;;;-143.48;92.70;118439.88;5115958;28;20023;-28
2023/03/02 04:00:57;;;;;;;39.60;18.65;;;;;;;-143.48;93.20;118439.88;5115606;28;20441;-28
2023/03/02 04:03:24;;;;;;;41.40;19.20;;;;;;;-143.48;92.97;118439.88;5115503;28;20027;-28
2023/03/02 04:05:50;;;;;;;42.58;18.70;;;;;;;-143.48;93.74;118439.88;5115553;28;20438;-28
2023/03/02 04:08:15;;;;;;;40.10;19.02;;;;;;;-143.48;94.32;118439.88;5115783;28;20080;-28
2023/03/02 04:10:41;;;;;;;37.92;17.33;;;;;;;-143.48;93.87;118439.88;5114968;28;20493;-27
2023/03/02 04:13:07;;;;;;;37.80;17.95;;;;;;;-143.48;93.68;118439.88;5114969;28;20032;-27
2023/03/02 04:15:32;;;;;;;41.10;18.17;;;;;;;-143.48;93.62;118439.88;5115560;28;20034;-27
2023/03/02 04:17:57;;;;;;;37.55;18.25;;;;;;;-143.48;93.61;118439.88;5114988;28;20062;-27
2023/03/02 04:20:24;;;;;;;36.33;18.30;;;;;;;-143.48;93.30;118439.88;5115139;28;20027;-27
2023/03/02 04:22:52;;;;;;;37.15;17.48;;;;;;;-143.48;93.27;118439.88;5115451;28;20054;-27
2023/03/02 04:25:20;;;;;;;39.65;17.83;;;;;;;-143.48;93.35;118439.88;5114821;28;20038;-27
2023/03/02 04:27:48;;;;;;;39.65;17.98;;;;;;;-143.48;93.71;118439.88;5115126;28;20489;-27
2023/03/02 04:30:15;;;;;;;43.58;17.83;;;;;;;-143.48;94.09;118439.88;5115365;28;20024;-27
2023/03/02 04:32:42;;;;;;;41.05;17.95;;;;;;;-143.48;93.86;118439.88;5114569;28;20024;-28
2023/03/02 04:35:09;;;;;;;40.30;18.35;;;;;;;-143.48;94.00;118439.88;5114595;28;20118;-27
2023/03/02 04:37:34;;;;;;;37.42;17.90;;;;;;;-143.48;93.97;118439.88;5096941;28;20035;-27
2023/03/02 04:39:59;;;;;;;36.38;17.73;;;;;;;-143.48;93.49;118439.88;5114853;28;20031;-28
2023/03/02 04:42:25;;;;;;;39.83;18.20;;;;;;;-143.48;93.62;118439.88;5114791;28;20019;-28
2023/03/02 04:44:50;;;;;;;39.50;17.58;;;;;;;-143.48;93.55;118439.88;5114460;28;20015;-28
2023/03/02 04:47:15;;;;;;;40.83;17.52;;;;;;;-143.48;93.48;118439.88;5114615;28;20019;-27
2023/03/02 04:49:41;;;;;;;40.95;18.10;;;;;;;-143.48;93.39;118439.88;5114687;28;20054;-28
2023/03/02 04:52:06;;;;;;;42.50;18.98;;;;;;;-143.48;94.52;118439.88;5114691;28;20031;-27
2023/03/02 04:54:32;;;;;;;42.25;18.50;;;;;;;-143.48;94.10;118439.88;5114480;28;20023;-28
2023/03/02 04:56:57;;;;;;;39.67;18.55;;;;;;;-143.48;94.16;118439.88;5114510;28;20027;-27
2023/03/02 04:59:26;;;;;;;43.53;18.20;;;;;;;-143.48;93.72;118439.88;5114267;28;20022;-27
2023/03/02 05:01:53;;;;;;;38.67;17.48;;;;;;;-143.48;93.82;118439.88;5114518;28;20027;-27
2023/03/02 05:04:18;;;;;;;38.35;18.23;;;;;;;-143.48;94.05;118439.88;5114431;28;20382;-27
2023/03/02 05:06:45;;;;;;;38.03;18.13;;;;;;;-143.48;93.83;118439.88;5114144;28;20025;-27
2023/03/02 05:09:11;;;;;;;39.47;17.55;;;;;;;-143.48;94.59;118439.88;5114026;28;20034;-27
2023/03/02 05:11:37;;;;;;;39.90;18.88;;;;;;;-143.48;94.26;118439.88;5114023;28;20039;-27
2023/03/02 05:14:05;;;;;;;41.83;17.77;;;;;;;-143.48;93.92;118439.88;5114289;28;20489;-27
2023/03/02 05:16:32;;;;;;;39.72;18.13;;;;;;;-143.48;93.65;118439.88;5114571;28;20027;-27
2023/03/02 05:18:58;;;;;;;42.83;18.08;;;;;;;-143.48;93.40;118439.88;5114560;28;20074;-28
2023/03/02 05:21:24;;;;;;;38.55;18.13;;;;;;;-143.48;93.99;118439.88;5095638;28;20027;-27
2023/03/02 05:23:50;;;;;;;39.10;18.20;;;;;;;-143.48;94.63;118439.88;5114010;28;20152;-27
2023/03/02 05:26:16;;;;;;;39.92;18.50;;;;;;;-143.48;94.59;118439.88;5114526;28;20024;-28
2023/03/02 05:28:42;;;;;;;39.15;19.00;;;;;;;-143.48;94.22;118439.88;5113873;28;20088;-28
2023/03/02 05:31:08;;;;;;;42.80;18.48;;;;;;;-143.48;94.23;118439.88;5113785;28;20027;-27
2023/03/02 05:33:33;;;;;;;39.33;17.55;;;;;;;-143.48;94.27;118439.88;5113806;28;20109;-27
2023/03/02 05:36:00;;;;;;;41.20;17.83;;;;;;;-143.48;94.79;118439.88;5114141;28;20028;-27
2023/03/02 05:38:26;;;;;;;43.15;18.90;;;;;;;-143.48;93.97;118439.88;5114082;28;20111;-27
2023/03/02 05:40:52;;;;;;;41.70;18.58;;;;;;;-143.48;93.46;118439.88;5114100;28;20023;-27
2023/03/02 05:43:20;;;;;;;42.55;18.40;;;;;;;-143.48;93.64;118439.88;5114044;28;20023;-27
2023/03/02 05:45:46;;;;;;;43.38;18.52;;;;;;;-143.48;94.95;118439.88;5113764;28;20374;-27
2023/03/02 05:48:12;;;;;;;45.78;18.92;;;;;;;-143.48;94.35;118439.88;5113657;28;20023;-27
2023/03/02 05:50:38;;;;;;;46.35;19.67;;;;;;;-143.48;93.97;118439.88;5113971;28;20039;-28
2023/03/02 05:53:04;;;;;;;44.97;18.67;;;;;;;-143.48;94.13;118439.88;5113787;28;20462;-28
2023/03/02 05:55:29;;;;;;;41.45;18.67;;;;;;;-143.48;94.32;118439.88;5114486;28;20029;-28
2023/03/02 05:57:55;;;;;;;39.67;17.85;;;;;;;-143.48;94.40;118439.88;5118003;28;20027;-27
2023/03/02 06:00:20;;;;;;;43.90;19.35;;;;;;;-143.48;94.64;118439.88;5099434;28;20035;-27
2023/03/02 06:02:46;;;;;;;41.90;18.30;;;;;;;-143.48;95.03;118439.88;5117518;28;20043;-28
2023/03/02 06:05:14;;;;;;;42.72;18.38;;;;;;;-143.48;94.99;118439.88;5117885;28;20028;-27
2023/03/02 06:07:40;;;;;;;48.20;20.50;;;;;;;-143.48;94.94;118439.88;5117879;28;20051;-27
2023/03/02 06:10:07;;;;;;;40.00;17.70;;;;;;;-143.48;95.07;118439.88;5117623;28;20055;-28
2023/03/02 06:12:33;;;;;;;51.88;20.17;;;;;;;-143.48;95.54;118439.88;5117392;28;20019;-27
2023/03/02 06:14:58;;;;;;;45.75;18.10;;;;;;;-143.48;95.23;118439.88;5117563;28;20031;-28
2023/03/02 06:17:25;;;;;;;47.28;19.38;;;;;;;-143.48;95.15;118439.88;5117626;28;20024;-27
2023/03/02 06:19:50;;;;;;;42.70;19.17;;;;;;;-143.48;95.22;118439.88;5117591;28;20047;-27
2023/03/02 06:22:16;;;;;;;48.78;19.98;;;;;;;-143.48;94.56;118439.88;5117304;28;20061;-27
2023/03/02 06:24:41;;;;;;;46.10;18.98;;;;;;;-143.48;93.79;118439.88;5117177;28;20066;-27
2023/03/02 06:27:06;;;;;;;44.90;17.92;;;;;;;-143.48;93.93;118439.88;5117445;28;20445;-28
2023/03/02 06:29:31;;;;;;;44.42;19.60;;;;;;;-143.48;93.89;118439.88;5117480;28;20038;-28
2023/03/02 06:31:57;;;;;;;43.08;18.80;;;;;;;-143.48;93.92;118439.88;5117726;28;20474;-27
2023/03/02 06:34:22;;;;;;;47.40;19.13;;;;;;;-143.48;93.89;118439.88;5117040;28;20378;-27
2023/03/02 06:36:47;;;;;;;43.95;19.27;;;;;;;-143.48;93.53;118439.88;5117206;28;20106;-27
2023/03/02 06:39:15;;;;;;;43.67;18.13;;;;;;;-143.48;93.72;118439.88;5117259;28;20019;-28
2023/03/02 06:41:42;;;;;;;44.55;18.85;;;;;;;-143.48;93.98;118439.88;5117443;28;20150;-28
2023/03/02 06:44:07;;;;;;;42.97;18.55;;;;;;;-143.48;93.69;118439.88;5116952;28;20019;-27
2023/03/02 06:46:33;;;;;;;49.45;19.95;;;;;;;-143.48;93.87;118439.88;5117374;28;20020;-27
2023/03/02 06:48:58;;;;;;;42.72;18.50;;;;;;;-143.48;93.60;118439.88;5116703;28;20466;-27
2023/03/02 06:51:23;;;;;;;39.05;18.48;;;;;;;-143.48;93.11;118439.88;5117312;28;20055;-28
2023/03/02 06:53:49;;;;;;;43.53;18.58;;;;;;;-143.48;91.88;118439.88;5116958;28;20088;-27
2023/03/02 06:56:14;;;;;;;39.88;17.77;;;;;;;-143.48;91.98;118439.88;5116743;28;20533;-27
2023/03/02 06:58:39;;;;;;;42.85;18.33;;;;;;;-143.48;92.18;118439.88;5117022;28;20527;-27
2023/03/02 07:01:06;;;;;;;43.33;18.98;;;;;;;-143.48;92.86;118439.88;5116879;28;20055;-27
2023/03/02 07:03:32;;;;;;;45.53;18.83;;;;;;;-143.48;92.37;118439.88;5116791;28;20373;-27
2023/03/02 07:05:57;;;;;;;44.40;18.95;;;;;;;-143.48;91.67;118439.88;5116680;28;20028;-27
2023/03/02 07:08:22;;;;;;;45.00;19.85;;;;;;;-143.48;91.10;118439.88;5116572;28;20469;-27
2023/03/02 07:10:48;;;;;;;42.25;18.88;;;;;;;-143.48;92.01;118439.88;5116113;28;20468;-27
2023/03/02 07:13:13;;;;;;;40.92;18.58;;;;;;;-143.48;92.32;118439.88;5116846;28;20024;-27
2023/03/02 07:15:39;;;;;;;42.20;19.35;;;;;;;-143.48;91.80;118439.88;5116586;28;20028;-27
2023/03/02 07:18:04;;;;;;;39.50;18.92;;;;;;;-143.48;91.63;118439.88;5116152;28;20020;-27
2023/03/02 07:20:29;;;;;;;39.25;18.33;;;;;;;-143.48;92.24;118439.88;5116198;28;20023;-27
2023/03/02 07:22:55;;;;;;;41.40;18.38;;;;;;;-143.48;92.91;118439.88;5116358;28;20020;-28
2023/03/02 07:25:21;;;;;;;39.70;18.08;;;;;;;-143.48;92.69;118439.88;5116604;28;20024;-27
2023/03/02 07:27:46;;;;;;;42.83;18.23;;;;;;;-143.48;91.61;118439.88;5116374;28;20484;-28
2023/03/02 07:30:13;;;;;;;38.85;17.23;;;;;;;-143.48;90.30;118439.88;5116058;28;20030;-27
2023/03/02 07:32:39;;;;;;;35.70;17.13;;;;;;;-143.48;90.22;118439.88;5115796;28;20027;-35
2023/03/02 07:35:04;;;;;;;35.47;16.40;;;;;;;-143.48;90.42;118439.88;5097604;28;20030;-28
2023/03/02 07:37:30;;;;;;;36.38;17.08;;;;;;;-143.48;89.74;118439.88;5115829;28;20024;-27
2023/03/02 07:39:55;;;;;;;36.58;17.45;;;;;;;-143.48;88.04;118439.88;5115793;28;20019;-27
2023/03/02 07:42:20;;;;;;;34.13;17.00;;;;;;;-143.48;84.62;118439.88;5115638;28;20534;-27
2023/03/02 07:44:46;;;;;;;33.75;17.35;;;;;;;-143.48;78.62;118439.88;5115990;28;20023;-28
2023/03/02 07:47:12;;;;;;;32.15;18.25;;;;;;;-143.48;77.67;118439.88;5115897;28;20073;-28
2023/03/02 07:49:37;;;;;;;31.35;17.27;;;;;;;-143.48;80.49;118439.88;5115653;28;20027;-27
2023/03/02 07:52:03;;;;;;;34.33;17.85;;;;;;;-143.48;77.62;118439.88;5115802;28;20043;-28
2023/03/02 07:54:29;;;;;;;31.55;17.80;;;;;;;-143.48;72.98;118439.88;5115602;28;20093;-28
2023/03/02 07:56:58;;;;;;;32.97;19.10;;;;;;;-143.48;72.21;118439.88;5115740;28;20023;-28
2023/03/02 07:59:24;;;;;;;30.05;18.15;;;;;;;-143.48;71.51;118439.88;5115465;28;20103;-28
2023/03/02 08:01:50;;;;;;;29.75;18.08;;;;;;;-143.48;73.48;118439.88;5115367;28;20392;-28
2023/03/02 08:04:15;;;;;;;27.10;17.33;;;;;;;-143.48;74.20;118439.88;5115252;28;20012;-28
2023/03/02 08:06:40;;;;;;;27.95;17.08;;;;;;;-143.48;68.80;118439.88;5115548;28;20085;-28
2023/03/02 08:09:06;;;;;;;27.30;17.48;;;;;;;-143.48;69.79;118439.88;5115790;28;20023;-28
2023/03/02 08:11:31;;;;;;;28.42;17.65;;;;;;;-143.48;66.14;118439.88;5115037;28;20040;-28
2023/03/02 08:14:00;;;;;;;25.55;17.02;;;;;;;-143.48;63.50;118439.88;5115073;28;20030;-28
2023/03/02 08:16:26;;;;;;;24.55;17.20;;;;;;;-143.48;66.04;118439.88;5115274;28;20462;-28
2023/03/02 08:18:51;;;;;;;24.95;17.25;;;;;;;-143.48;62.00;118439.88;5114374;28;20019;-28
2023/03/02 08:21:22;;;;;;;22.88;16.67;;;;;;;-143.48;58.26;118439.88;5114856;28;20157;-28
2023/03/02 08:23:47;;;;;;;20.40;15.65;;;;;;;-143.48;57.52;118439.88;5115231;28;20102;-32
2023/03/02 08:26:13;;;;;;;21.05;15.25;;;;;;;-143.48;57.36;118439.88;5115102;28;20411;-28
2023/03/02 08:28:39;;;;;;;20.92;15.20;;;;;;;-143.48;55.09;118439.88;5115141;28;20019;-29
2023/03/02 08:31:05;;;;;;;19.13;15.07;;;;;;;-143.48;54.53;118439.88;5114786;28;20381;-28
2023/03/02 08:33:31;;;;;;;20.90;15.73;;;;;;;-143.48;54.71;118439.88;5114647;28;20031;-29
2023/03/02 08:35:59;;;;;;;19.50;14.75;;;;;;;-143.48;53.90;118439.88;5114699;28;20012;-28
2023/03/02 08:38:25;;;;;;;20.98;15.55;;;;;;;-143.48;52.82;118439.88;5114627;28;20027;-28
2023/03/02 08:40:51;;;;;;;20.05;15.20;;;;;;;-143.48;55.38;118439.88;5114959;28;20024;-28
2023/03/02 08:43:17;;;;;;;20.77;15.38;;;;;;;-143.48;58.18;118439.88;5114876;28;20016;-28
2023/03/02 08:45:43;;;;;;;22.05;15.30;;;;;;;-143.48;62.78;118439.88;5114545;28;20031;-28
2023/03/02 08:48:08;;;;;;;24.05;16.10;;;;;;;-143.48;65.83;118439.88;5114696;28;20453;-28
2023/03/02 08:50:33;;;;;;;23.27;16.02;;;;;;;-143.48;65.08;118439.88;5114966;28;20023;-28
2023/03/02 08:52:58;;;;;;;22.85;15.40;;;;;;;-143.48;62.80;118439.88;5114323;28;20443;-28
2023/03/02 08:55:24;;;;;;;23.98;15.18;;;;;;;-143.48;62.61;118439.88;5114409;28;20031;-28
2023/03/02 08:57:49;;;;;;;22.33;14.95;;;;;;;-143.48;67.87;118439.88;5114577;28;20019;-28
2023/03/02 09:00:15;;;;;;;25.40;15.77;;;;;;;-143.48;65.24;118439.88;5114484;28;20476;-28
2023/03/02 09:02:41;;;;;;;26.02;15.95;;;;;;;-143.48;65.33;118439.88;5114180;28;20024;-28
2023/03/02 09:05:07;;;;;;;25.52;16.05;;;;;;;-143.48;65.80;118439.88;5114840;28;20026;-28
2023/03/02 09:07:32;;;;;;;22.95;15.05;;;;;;;-143.48;67.78;118439.88;5114450;28;20460;-28
2023/03/02 09:09:57;;;;;;;26.73;15.48;;;;;;;-143.48;64.87;118439.88;5114194;28;20407;-28
2023/03/02 09:12:23;;;;;;;24.95;15.25;;;;;;;-143.48;59.65;118439.88;5114170;28;20126;-28
2023/03/02 09:14:48;;;;;;;24.40;15.68;;;;;;;-143.48;64.07;118439.88;5114022;28;20020;-28
2023/03/02 09:17:14;;;;;;;22.95;15.23;;;;;;;-143.48;56.13;118439.88;5113997;28;20122;-29
2023/03/02 09:19:40;;;;;;;25.33;16.10;;;;;;;-143.48;57.97;118439.88;5114037;28;20081;-28
2023/03/02 09:22:09;;;;;;;22.10;14.75;;;;;;;-143.48;50.52;118439.88;5114133;28;20488;-28
2023/03/02 09:24:35;;;;;;;22.98;14.25;;;;;;;-143.48;58.13;118439.88;5114257;28;20084;-28
2023/03/02 09:27:01;;;;;;;22.30;15.40;;;;;;;-143.48;54.15;118439.88;5114521;28;20023;-28
2023/03/02 09:29:27;;;;;;;22.45;14.98;;;;;;;-143.48;52.88;118439.88;5113811;28;20024;-28
2023/03/02 09:31:53;;;;;;;22.67;15.52;;;;;;;-143.48;59.18;118439.88;5113553;28;20027;-28
2023/03/02 09:34:19;;;;;;;23.40;15.77;;;;;;;-143.48;62.22;118439.88;5113750;28;20030;-28
2023/03/02 09:36:45;;;;;;;23.92;15.73;;;;;;;-143.48;60.80;118439.88;5114121;28;20098;-28
2023/03/02 09:39:11;;;;;;;24.80;15.50;;;;;;;-143.48;53.95;118439.88;5114102;28;20057;-28
2023/03/02 09:41:58;;;;;;;21.13;14.45;;;;;;;-143.48;48.03;118439.88;5114044;28;20427;-28
2023/03/02 09:44:56;;;;;;;21.38;15.25;;;;;;;-143.48;53.01;118439.88;5113751;28;20126;-29
2023/03/02 09:47:42;;;;;;;20.80;14.82;;;;;;;-143.48;48.71;118439.88;5113742;28;20032;-28
2023/03/02 09:50:29;;;;;;;20.30;14.73;;;;;;;-143.48;48.63;118439.88;5113863;28;20020;-28
2023/03/02 09:53:23;;;;;;;24.13;14.80;;;;;;;-143.48;45.75;118439.88;5113828;28;20027;-28
2023/03/02 09:55:53;;;;;;;21.33;15.15;;;;;;;-143.48;44.58;118439.88;5113520;28;20032;-28
2023/03/02 09:58:22;;;;;;;18.70;14.77;;;;;;;-143.48;43.65;118439.88;5113578;28;20019;-28
2023/03/02 10:00:49;;;;;;;19.75;15.25;;;;;;;-143.48;46.56;118439.88;5113809;28;20030;-28
2023/03/02 10:03:19;;;;;;;21.25;15.23;;;;;;;-143.48;48.85;118439.88;5113577;28;20028;-28
2023/03/02 10:05:47;;;;;;;20.80;14.32;;;;;;;-143.48;50.41;118439.88;5113762;28;20488;-28
2023/03/02 10:08:19;;;;;;;21.15;15.57;;;;;;;-143.48;53.77;118439.88;5114147;28;20128;-28
2023/03/02 10:10:45;;;;;;;25.40;15.90;;;;;;;-143.48;54.11;118439.88;5111612;28;20047;-28
2023/03/02 10:13:22;;;;;;;24.20;15.52;;;;;;;-143.48;56.75;118439.88;5111280;28;20024;-28
2023/03/02 10:16:01;;;;;;;23.52;15.57;;;;;;;-143.48;55.31;118439.88;5111110;28;20054;-28
2023/03/02 10:18:29;;;;;;;22.63;15.27;;;;;;;-143.48;47.65;118439.88;5111185;28;20027;-28
2023/03/02 10:21:12;;;;;;;27.13;15.15;;;;;;;-143.48;46.84;118439.88;5111075;28;20497;-29
2023/03/02 10:23:52;;;;;;;23.95;15.25;;;;;;;-143.48;44.65;118439.88;5112108;28;20035;-28
2023/03/02 10:26:26;;;;;;;26.50;15.00;;;;;;;-143.48;44.96;118439.88;5112472;28;20027;-28
2023/03/02 10:29:23;;;;;;;26.42;14.63;;;;;;;-143.48;47.36;118439.88;5113503;28;20534;-28
2023/03/02 10:31:54;;;;;;;27.13;14.68;;;;;;;-143.48;54.10;118439.88;5113265;28;20055;-28
2023/03/02 10:34:23;;;;;;;30.67;15.68;;;;;;;-143.48;50.01;118439.88;5113138;28;20019;-28
2023/03/02 10:36:48;;;;;;;25.77;15.23;;;;;;;-143.48;46.07;118439.88;5113270;28;20036;-28
2023/03/02 10:39:15;;;;;;;25.23;15.43;;;;;;;-143.48;46.06;118439.88;5113456;28;20026;-28
2023/03/02 10:41:48;;;;;;;29.00;14.98;;;;;;;-143.48;46.52;118439.88;5114286;28;20046;-28
2023/03/02 10:44:26;;;;;;;;;;;;;;;-143.48;46.49;118439.88;5117203;28;20107;-28
2023/03/02 10:46:52;;;;;;;25.92;14.77;;;;;;;-143.48;52.53;118439.88;5116323;28;19915;-28
2023/03/02 10:49:33;;;;;;;27.05;14.73;;;;;;;-143.48;51.33;118439.88;5116216;28;20025;-28
2023/03/02 10:52:12;;;;;;;24.92;14.35;;;;;;;-143.48;53.57;118439.88;5116293;28;20066;-28
2023/03/02 10:54:37;;;;;;;25.88;14.90;;;;;;;-143.48;54.66;118439.88;5116160;28;20110;-28
2023/03/02 10:57:27;;;;;;;25.63;14.48;;;;;;;-143.48;53.93;118439.88;5116110;28;20128;-28